Kimmswick, Missouri
Current Conditions -  °F | °C
As of 12:53 AM on Wednesday 22 Oct 2014 (Local Time) from KCPS Reporting Station
Clear Clear  
Wind Chill: 46°   Ceiling: Unl
Heat Index: 48°   Visibility: 10mi
Dew Point: 41°   Wind: 5mph
Humidity: 77%   Direction: 80°E
Pressure: 30.22"   Gusts: NA
Location:  38.37°N, 90.36°W
Report Text: KCPS 220553Z AUTO 08004KT 10SM CLR 09/05 A3022 RMK AO2 SLP231 T00890050 10144 20089 402060061 51008
Loading
Personal Weather Stations






























Interactive Weather Map
Tropical Storm Tracking
New forecast layout! Learn more

10-Day Weather Forecast

Advertisements
Track Severe Weather on mobile